International Virtual Aviation Organisation

Russian Federation and Kazakhstan MCD

 
UEEE 281030Z 28002MPS CAVOK M28/M31 Q1024 R23L/490143 NOSIG RMK QFE759
QNH:(hPa/inHg/mmHg)1024 / 30.24 / 768
QFE:(hPa/inHg/mmHg)1012 / 29.88 / 759
Temperature-28
Dew Point-31
Visibility> 10000
WeatherCAVOK
Cloud Cover
Transition Height1000 m./3700 ft.
Transition LevelFL50
SQUAWK